Time;durP1;ratioP1;P1;durP2;ratioP2;P2;SDS_P1;SDS_P2;PMS_P1;PMS_P2;Temp;Humidity;BMP_temperature;BMP_pressure;BME280_temperature;BME280_humidity;BME280_pressure;Samples;Min_cycle;Max_cycle;Signal;HPM_P1;HPM_P2
2022/04/09 00:02:06;;;;;;;1.03;1.03;;;6.40;99.90;5.60;100403.00;;;;5037948;28;20187;-68
2022/04/09 00:04:34;;;;;;;2.10;1.57;;;6.20;99.90;5.40;100412.00;;;;5037204;28;20190;-68
2022/04/09 00:07:05;;;;;;;0.70;0.70;;;6.00;99.90;5.40;100416.00;;;;5037131;28;20197;-68
2022/04/09 00:09:37;;;;;;;0.50;0.50;;;5.90;99.90;5.20;100421.00;;;;5037168;28;20186;-69
2022/04/09 00:12:09;;;;;;;0.60;0.60;;;5.80;99.90;5.30;100440.00;;;;5055630;28;20206;-69
2022/04/09 00:14:42;;;;;;;0.80;0.80;;;5.80;99.90;5.40;100384.00;;;;5053742;28;20270;-66
2022/04/09 00:17:13;;;;;;;0.60;0.60;;;5.80;99.90;5.40;100445.00;;;;5054974;28;20179;-67
2022/04/09 00:19:48;;;;;;;3.20;1.37;;;5.90;99.90;5.10;100449.00;;;;5055246;28;20178;-68
2022/04/09 00:22:22;;;;;;;0.60;0.60;;;5.80;99.90;5.00;100460.00;;;;5038391;28;20178;-68
2022/04/09 00:24:48;;;;;;;1.37;1.33;;;5.80;99.90;5.10;100454.00;;;;5035626;28;20196;-68
2022/04/09 00:27:21;;;;;;;1.17;0.90;;;5.70;99.90;4.80;100464.00;;;;5055629;28;20747;-68
2022/04/09 00:29:47;;;;;;;1.73;1.63;;;5.60;99.90;4.90;100477.00;;;;5035503;28;20182;-70
2022/04/09 00:32:20;;;;;;;4.00;1.80;;;5.50;99.90;4.90;100447.00;;;;5036552;28;20573;-68
2022/04/09 00:34:57;;;;;;;3.90;2.07;;;5.50;99.90;5.00;100486.00;;;;5020275;28;20202;-69
2022/04/09 00:37:29;;;;;;;0.50;0.50;;;5.60;99.90;4.70;100493.00;;;;5020179;28;20205;-69
2022/04/09 00:39:56;;;;;;;1.13;0.67;;;5.50;99.90;4.60;100495.00;;;;5038131;28;20225;-68
2022/04/09 00:42:27;;;;;;;0.53;0.53;;;5.40;99.90;4.70;100497.00;;;;5020799;28;20213;-69
2022/04/09 00:44:56;;;;;;;0.60;0.60;;;5.40;99.90;4.60;100489.00;;;;5035111;28;20261;-69
2022/04/09 00:47:27;;;;;;;10.13;2.37;;;5.30;99.90;4.70;100508.00;;;;5055271;28;20255;-69
2022/04/09 00:49:56;;;;;;;1.40;1.33;;;5.30;99.90;4.80;100504.00;;;;5037082;28;20182;-70
2022/04/09 00:52:32;;;;;;;0.90;0.90;;;5.40;99.90;4.70;100519.00;;;;5053217;28;20694;-69
2022/04/09 00:55:07;;;;;;;0.60;0.60;;;5.30;99.90;5.00;100527.00;;;;5019347;28;20186;-70
2022/04/09 00:57:34;;;;;;;0.77;0.77;;;5.50;99.90;5.40;100518.00;;;;5036545;28;20279;-70
2022/04/09 01:00:11;;;;;;;0.60;0.60;;;5.70;99.90;5.50;100529.00;;;;5036213;28;20208;-67
2022/04/09 01:02:43;;;;;;;2.17;2.10;;;5.80;99.90;5.50;100551.00;;;;5037063;28;20182;-68
2022/04/09 01:05:11;;;;;;;0.73;0.73;;;5.90;99.90;5.10;100501.00;;;;5036751;28;20178;-67
2022/04/09 01:07:37;;;;;;;1.03;1.03;;;5.80;99.90;5.50;100535.00;;;;5035461;28;20228;-66
2022/04/09 01:10:10;;;;;;;7.03;1.17;;;5.90;99.90;5.30;100535.00;;;;5036465;28;20177;-66
2022/04/09 01:12:42;;;;;;;1.60;1.50;;;5.90;99.90;4.90;100541.00;;;;5020252;28;20206;-67
2022/04/09 01:15:14;;;;;;;4.83;1.70;;;5.70;99.90;5.00;100526.00;;;;5034654;28;20182;-67
2022/04/09 01:17:40;;;;;;;0.80;0.80;;;5.70;99.90;5.10;100551.00;;;;5053848;28;20177;-67
2022/04/09 01:20:20;;;;;;;0.50;0.50;;;5.70;99.90;5.10;100512.00;;;;5019851;28;20185;-67
2022/04/09 01:22:49;;;;;;;4.97;2.00;;;5.70;99.90;5.40;100558.00;;;;5035878;28;20182;-67
2022/04/09 01:25:21;;;;;;;2.03;1.00;;;5.80;99.90;5.10;100550.00;;;;5035414;28;20182;-67
2022/04/09 01:27:48;;;;;;;0.77;0.77;;;5.80;99.90;5.10;100555.00;;;;5019724;28;20190;-67
2022/04/09 01:30:16;;;;;;;0.97;0.97;;;5.80;99.90;5.50;100552.00;;;;5035708;28;20189;-68
2022/04/09 01:32:48;;;;;;;8.50;1.27;;;5.90;99.90;5.60;100562.00;;;;5019654;28;20218;-67
2022/04/09 01:35:17;;;;;;;1.90;1.57;;;6.00;99.90;5.60;100577.00;;;;5034789;28;20224;-68
2022/04/09 01:37:43;;;;;;;1.47;1.37;;;6.10;99.90;5.40;100530.00;;;;5018988;28;20265;-67
2022/04/09 01:40:10;;;;;;;2.43;1.23;;;6.10;99.90;5.50;100571.00;;;;5019432;28;20272;-68
2022/04/09 01:42:41;;;;;;;2.93;1.27;;;6.00;99.90;5.40;100561.00;;;;5035913;28;20178;-67
2022/04/09 01:45:15;;;;;;;0.60;0.60;;;6.00;99.90;5.20;100577.00;;;;5034849;28;20196;-68
2022/04/09 01:47:44;;;;;;;0.83;0.83;;;5.90;99.90;5.00;100576.00;;;;5019753;28;20189;-67
2022/04/09 01:50:11;;;;;;;0.50;0.50;;;5.80;99.90;5.00;100592.00;;;;5036092;28;20182;-68
2022/04/09 01:52:42;;;;;;;13.80;3.90;;;5.70;99.90;5.20;100597.00;;;;5018603;28;20271;-67
2022/04/09 01:55:16;;;;;;;0.80;0.80;;;5.80;99.90;5.00;100598.00;;;;5035584;28;20198;-67
2022/04/09 01:57:49;;;;;;;0.53;0.53;;;5.80;99.90;4.80;100592.00;;;;5035405;28;20565;-68
2022/04/09 02:00:16;;;;;;;0.67;0.67;;;5.60;99.90;5.00;100605.00;;;;5035770;28;20622;-68
2022/04/09 02:02:51;;;;;;;0.97;0.97;;;5.70;99.90;5.10;100612.00;;;;5018774;28;20557;-67
2022/04/09 02:05:20;;;;;;;5.30;0.80;;;5.70;99.90;4.80;100577.00;;;;5019327;28;20177;-67
2022/04/09 02:07:49;;;;;;;1.37;1.07;;;5.70;99.90;5.40;100560.00;;;;5052082;28;20188;-67
2022/04/09 02:10:16;;;;;;;4.60;1.70;;;5.80;99.90;5.10;100606.00;;;;5018837;28;20219;-67
2022/04/09 02:12:49;;;;;;;0.90;0.90;;;5.80;99.90;5.10;100612.00;;;;5035044;28;20226;-67
2022/04/09 02:15:17;;;;;;;1.93;1.83;;;5.70;99.90;4.90;100605.00;;;;5035495;28;20210;-67
2022/04/09 02:17:50;;;;;;;1.07;1.07;;;5.60;99.90;5.30;100614.00;;;;5034094;28;20290;-67
2022/04/09 02:20:21;;;;;;;0.50;0.50;;;5.70;99.90;5.00;100615.00;;;;5035964;28;20186;-67
2022/04/09 02:22:49;;;;;;;0.50;0.50;;;5.70;99.90;4.40;100617.00;;;;5035046;28;20186;-68
2022/04/09 02:25:21;;;;;;;0.67;0.67;;;5.50;99.90;5.30;100626.00;;;;5035056;28;20183;-68
2022/04/09 02:27:49;;;;;;;1.80;1.70;;;5.70;99.90;4.90;100635.00;;;;5018887;28;20207;-68
2022/04/09 02:30:20;;;;;;;1.10;1.10;;;5.60;99.90;5.00;100627.00;;;;5033391;28;20329;-68
2022/04/09 02:32:52;;;;;;;0.60;0.60;;;5.60;99.90;4.80;100636.00;;;;5035608;28;20218;-68
2022/04/09 02:35:22;;;;;;;2.43;1.80;;;5.40;99.90;5.10;100634.00;;;;5034701;28;20338;-68
2022/04/09 02:37:51;;;;;;;4.03;1.23;;;5.60;99.90;4.90;100643.00;;;;5035240;28;20186;-68
2022/04/09 02:40:20;;;;;;;0.60;0.60;;;5.50;99.90;4.60;100643.00;;;;5052791;28;20182;-68
2022/04/09 02:42:46;;;;;;;1.77;1.53;;;5.50;99.90;4.40;100601.00;;;;5051894;28;20189;-69
2022/04/09 02:45:17;;;;;;;1.67;1.63;;;5.20;99.90;4.30;100658.00;;;;5052117;28;20272;-68
2022/04/09 02:47:48;;;;;;;1.17;1.10;;;5.10;99.90;4.10;100655.00;;;;5052872;28;20178;-68
2022/04/09 02:50:19;;;;;;;0.60;0.60;;;5.00;99.90;3.90;100659.00;;;;5035211;28;20592;-68
2022/04/09 02:52:52;;;;;;;0.80;0.63;;;4.80;99.90;3.90;100665.00;;;;5034954;28;20244;-68
2022/04/09 02:55:23;;;;;;;0.57;0.57;;;4.70;99.90;3.80;100662.00;;;;5034803;28;20178;-70
2022/04/09 02:57:50;;;;;;;1.20;0.90;;;4.70;99.90;3.70;100667.00;;;;5033733;28;20189;-68
2022/04/09 03:00:18;;;;;;;1.00;1.00;;;4.70;99.90;3.70;100680.00;;;;5034837;28;20181;-69
2022/04/09 03:02:47;;;;;;;0.70;0.70;;;4.60;99.90;3.60;100689.00;;;;5034835;28;20321;-68
2022/04/09 03:05:18;;;;;;;1.70;1.60;;;4.60;99.90;3.80;100690.00;;;;5034506;28;20213;-68
2022/04/09 03:07:44;;;;;;;0.83;0.60;;;4.60;99.90;3.50;100646.00;;;;5034900;28;20196;-69
2022/04/09 03:10:13;;;;;;;2.40;2.20;;;4.50;99.90;3.90;100704.00;;;;5033409;28;20178;-69
2022/04/09 03:12:49;;;;;;;4.53;1.43;;;4.50;99.90;3.60;100669.00;;;;5034334;28;20226;-68
2022/04/09 03:15:17;;;;;;;1.33;1.27;;;4.50;99.90;3.60;100704.00;;;;5034985;28;20270;-68
2022/04/09 03:17:49;;;;;;;1.33;1.17;;;4.40;99.90;3.40;100668.00;;;;5017825;28;20488;-68
2022/04/09 03:20:15;;;;;;;0.70;0.70;;;4.40;99.90;3.30;100703.00;;;;5038655;28;20182;-68
2022/04/09 03:22:48;;;;;;;1.53;1.43;;;4.30;99.90;3.30;100719.00;;;;5038078;28;20660;-68
2022/04/09 03:25:15;;;;;;;5.87;1.57;;;4.20;99.90;3.10;100720.00;;;;5037896;28;20324;-68
2022/04/09 03:27:44;;;;;;;0.87;0.87;;;4.20;99.90;3.10;100726.00;;;;5055293;28;20624;-68
2022/04/09 03:30:11;;;;;;;1.50;1.50;;;4.20;99.90;3.40;100742.00;;;;5039142;28;20264;-68
2022/04/09 03:32:43;;;;;;;2.37;2.10;;;4.20;99.90;3.40;100748.00;;;;5020754;28;20221;-68
2022/04/09 03:35:14;;;;;;;0.60;0.60;;;4.20;99.90;3.40;100750.00;;;;5038179;28;20186;-68
2022/04/09 03:37:45;;;;;;;1.00;1.00;;;4.20;99.90;3.40;100747.00;;;;5037900;28;20169;-68
2022/04/09 03:40:13;;;;;;;1.47;1.37;;;4.20;99.90;3.60;100759.00;;;;5038490;28;20240;-68
2022/04/09 03:42:44;;;;;;;1.40;1.30;;;4.30;99.90;3.90;100749.00;;;;5037754;28;20182;-68
2022/04/09 03:45:13;;;;;;;0.60;0.60;;;4.50;99.90;3.70;100756.00;;;;5038389;28;20252;-68
2022/04/09 03:47:48;;;;;;;0.97;0.97;;;4.50;99.90;3.40;100759.00;;;;5020637;28;20232;-68
2022/04/09 03:50:14;;;;;;;0.90;0.90;;;4.40;99.90;3.40;100709.00;;;;5037957;28;20177;-68
2022/04/09 03:52:46;;;;;;;1.07;1.07;;;4.30;99.90;3.70;100773.00;;;;5037790;28;20295;-68
2022/04/09 03:55:17;;;;;;;4.03;1.20;;;4.30;99.90;4.00;100769.00;;;;5020930;28;20189;-67
2022/04/09 03:57:48;;;;;;;2.37;1.30;;;4.50;99.90;3.70;100710.00;;;;5021123;28;20260;-67
2022/04/09 04:00:18;;;;;;;2.10;1.47;;;4.40;99.90;3.30;100750.00;;;;5037091;28;20641;-68
2022/04/09 04:02:46;;;;;;;1.30;1.20;;;4.30;99.90;3.40;100771.00;;;;5021183;28;20205;-67
2022/04/09 04:05:26;;;;;;;0.77;0.77;;;4.30;99.90;3.50;100785.00;;;;5055094;28;20220;-67
2022/04/09 04:07:53;;;;;;;1.27;1.27;;;4.30;99.90;3.80;100776.00;;;;5036455;28;20190;-66
2022/04/09 04:10:19;;;;;;;2.00;1.17;;;4.50;99.90;3.60;100775.00;;;;5037858;28;20181;-66
2022/04/09 04:12:47;;;;;;;6.87;2.13;;;4.40;99.90;3.60;100787.00;;;;5036590;28;20206;-67
2022/04/09 04:15:16;;;;;;;13.67;2.27;;;4.30;99.90;3.70;100790.00;;;;5037198;28;20181;-67
2022/04/09 04:17:49;;;;;;;0.90;0.90;;;4.40;99.90;3.50;100782.00;;;;5036655;28;20170;-67
2022/04/09 04:20:15;;;;;;;3.40;2.10;;;4.30;99.90;3.60;100797.00;;;;5037556;28;20182;-68
2022/04/09 04:22:46;;;;;;;0.60;0.60;;;4.40;99.90;3.50;100753.00;;;;5037247;28;20657;-67
2022/04/09 04:25:17;;;;;;;1.67;1.60;;;4.40;99.90;3.80;100761.00;;;;5036938;28;20178;-68
2022/04/09 04:27:55;;;;;;;2.97;1.33;;;4.50;99.90;3.60;100757.00;;;;5036466;28;20174;-67
2022/04/09 04:30:21;;;;;;;1.57;1.53;;;4.40;99.90;3.40;100814.00;;;;5037612;28;20177;-68
2022/04/09 04:32:47;;;;;;;10.23;1.73;;;4.40;99.90;3.90;100768.00;;;;5035805;28;20232;-68
2022/04/09 04:35:16;;;;;;;2.00;1.53;;;4.50;99.90;3.80;100810.00;;;;5037226;28;20187;-68
2022/04/09 04:37:47;;;;;;;7.87;2.77;;;4.50;99.90;3.90;100810.00;;;;5037313;28;20510;-68
2022/04/09 04:40:17;;;;;;;1.57;1.47;;;4.50;99.90;3.80;100824.00;;;;5036097;28;20185;-68
2022/04/09 04:42:45;;;;;;;4.07;2.53;;;4.50;99.90;3.60;100822.00;;;;5037586;28;20186;-68
2022/04/09 04:45:14;;;;;;;1.07;0.97;;;4.40;99.90;3.40;100811.00;;;;5036910;28;20181;-68
2022/04/09 04:47:48;;;;;;;1.17;1.17;;;4.40;99.90;3.30;100829.00;;;;5036987;28;20178;-69
2022/04/09 04:50:19;;;;;;;0.93;0.93;;;4.30;99.90;3.40;100832.00;;;;5036704;28;20633;-68
2022/04/09 04:52:51;;;;;;;5.00;2.77;;;4.20;99.90;3.50;100783.00;;;;5036853;28;20194;-69
2022/04/09 04:55:17;;;;;;;3.70;1.93;;;4.20;99.90;3.50;100839.00;;;;5037072;28;20174;-69
2022/04/09 04:57:53;;;;;;;3.70;2.20;;;4.30;99.90;3.50;100847.00;;;;5036429;28;20435;-69
2022/04/09 05:00:23;;;;;;;0.50;0.50;;;4.40;99.90;3.50;100849.00;;;;5020885;28;20185;-70
2022/04/09 05:02:51;;;;;;;12.30;3.07;;;4.40;99.90;3.70;100850.00;;;;5019139;28;20190;-69
2022/04/09 05:05:25;;;;;;;2.93;1.57;;;4.50;99.90;3.50;100857.00;;;;5052310;28;20191;-69
2022/04/09 05:07:53;;;;;;;14.70;1.17;;;4.40;99.90;3.80;100868.00;;;;5052479;28;20217;-68
2022/04/09 05:10:27;;;;;;;0.77;0.77;;;4.50;99.90;3.50;100867.00;;;;5035635;28;20197;-68
2022/04/09 05:13:00;;;;;;;1.33;1.33;;;4.40;99.90;3.70;100863.00;;;;5036374;28;20225;-69
2022/04/09 05:15:32;;;;;;;1.40;1.40;;;4.50;99.90;3.70;100867.00;;;;5036900;28;20178;-69
2022/04/09 05:18:03;;;;;;;2.40;2.30;;;4.50;99.90;3.80;100861.00;;;;5031805;28;20191;-69
2022/04/09 05:20:31;;;;;;;0.60;0.60;;;4.60;99.90;3.80;100879.00;;;;5016483;28;20234;-69
2022/04/09 05:23:05;;;;;;;2.43;1.50;;;4.60;99.90;4.00;100878.00;;;;5015579;28;20179;-69
2022/04/09 05:25:41;;;;;;;3.27;1.23;;;4.70;99.90;4.30;100882.00;;;;5016520;28;20584;-69
2022/04/09 05:28:10;;;;;;;1.80;1.10;;;4.80;99.90;3.80;100832.00;;;;5016317;28;20565;-69
2022/04/09 05:30:42;;;;;;;4.57;3.00;;;4.70;99.90;3.60;100887.00;;;;5016456;28;20548;-69
2022/04/09 05:33:14;;;;;;;1.57;1.47;;;4.60;99.90;4.10;100903.00;;;;4998958;28;20219;-69
2022/04/09 05:35:45;;;;;;;0.50;0.50;;;4.70;99.90;4.20;100859.00;;;;4999871;28;20191;-69
2022/04/09 05:38:17;;;;;;;9.83;1.27;;;4.80;99.90;3.80;100903.00;;;;5015898;28;20225;-69
2022/04/09 05:40:45;;;;;;;2.50;1.83;;;4.70;99.90;3.80;100911.00;;;;5033131;28;20265;-69
2022/04/09 05:43:17;;;;;;;1.90;1.23;;;4.70;99.90;3.40;100903.00;;;;5016567;28;20221;-69
2022/04/09 05:45:45;;;;;;;1.73;1.63;;;4.50;99.90;3.40;100912.00;;;;5016096;28;20182;-69
2022/04/09 05:48:13;;;;;;;0.70;0.70;;;4.40;99.90;3.40;100868.00;;;;5033247;28;20689;-68
2022/04/09 05:50:44;;;;;;;0.40;0.40;;;4.40;99.90;3.30;100920.00;;;;4998847;28;20650;-68
2022/04/09 05:53:15;;;;;;;1.03;1.03;;;4.30;99.90;3.70;100914.00;;;;5033652;28;20214;-69
2022/04/09 05:55:50;;;;;;;0.50;0.50;;;4.50;99.90;3.90;100891.00;;;;5015570;28;20626;-68
2022/04/09 05:58:21;;;;;;;0.73;0.73;;;4.70;99.90;4.30;100925.00;;;;5016076;28;20175;-68
2022/04/09 06:00:52;;;;;;;2.63;1.67;;;5.00;99.90;5.20;100872.00;;;;4998278;28;20186;-68
2022/04/09 06:03:18;;;;;;;0.50;0.50;;;5.50;99.90;5.20;100927.00;;;;5015668;28;20194;-68
2022/04/09 06:05:49;;;;;;;0.90;0.90;;;5.80;99.90;5.80;100936.00;;;;4999358;28;20193;-69
2022/04/09 06:08:23;;;;;;;3.97;1.13;;;6.20;99.90;5.30;100880.00;;;;5033212;28;20535;-68
2022/04/09 06:10:51;;;;;;;1.43;1.27;;;6.20;99.90;6.10;100929.00;;;;5016128;28;20201;-68
2022/04/09 06:13:23;;;;;;;2.85;1.75;;;6.60;99.90;6.70;100888.00;;;;5015266;28;20797;-69
2022/04/09 06:15:57;;;;;;;1.33;1.00;;;7.00;99.90;5.70;100881.00;;;;5015638;28;20241;-69
2022/04/09 06:18:23;;;;;;;1.13;1.13;;;6.80;99.90;6.60;100891.00;;;;4999243;28;20629;-70
2022/04/09 06:20:52;;;;;;;0.20;0.20;;;7.20;99.90;6.70;100895.00;;;;5015951;28;20290;-69
2022/04/09 06:23:25;;;;;;;1.30;1.20;;;7.30;99.90;6.60;100945.00;;;;5033338;28;20630;-69
2022/04/09 06:25:57;;;;;;;1.70;0.53;;;7.40;99.90;6.70;100905.00;;;;5016453;28;20175;-68
2022/04/09 06:28:23;;;;;;;0.43;0.43;;;7.30;99.90;6.50;100948.00;;;;5015245;28;20179;-68
2022/04/09 06:30:49;;;;;;;0.30;0.27;;;7.40;99.90;6.10;100940.00;;;;5015386;28;20185;-69
2022/04/09 06:33:14;;;;;;;2.63;1.40;;;7.30;99.90;6.30;100952.00;;;;5014658;28;20215;-68
2022/04/09 06:35:43;;;;;;;3.83;1.17;;;7.30;99.90;6.60;100956.00;;;;5033408;28;20577;-68
2022/04/09 06:38:09;;;;;;;1.83;1.47;;;7.30;99.90;6.20;100907.00;;;;5032730;28;20179;-70
2022/04/09 06:40:35;;;;;;;0.83;0.83;;;7.20;99.90;6.80;100965.00;;;;5015431;28;20233;-68
2022/04/09 06:43:01;;;;;;;3.57;1.63;;;7.50;99.90;7.80;100970.00;;;;5015302;28;20180;-69
2022/04/09 06:45:28;;;;;;;7.13;1.33;;;8.20;99.90;7.40;100978.00;;;;5033102;28;20646;-70
2022/04/09 06:47:54;;;;;;;1.20;0.67;;;8.30;99.90;7.60;100980.00;;;;5015066;28;20512;-71
2022/04/09 06:50:23;;;;;;;10.23;2.70;;;8.30;99.90;7.40;100986.00;;;;4999129;28;20243;-70
2022/04/09 06:52:54;;;;;;;7.13;1.93;;;8.30;99.90;8.10;100973.00;;;;5015132;28;20203;-73
2022/04/09 06:55:23;;;;;;;0.50;0.50;;;8.60;99.90;8.50;100963.00;;;;5003254;28;20621;-75
2022/04/09 06:58:01;;;;;;;0.50;0.50;;;9.10;99.90;9.10;101001.00;;;;5036647;28;20269;-71
2022/04/09 07:00:28;;;;;;;4.30;1.27;;;9.40;99.90;8.80;101020.00;;;;5013047;28;20197;-70
2022/04/09 07:03:22;;;;;;;6.90;2.20;;;9.30;99.90;9.30;100983.00;;;;5035638;28;20220;-70
2022/04/09 07:05:59;;;;;;;0.20;0.20;;;9.70;99.90;9.40;101042.00;;;;5029768;28;20218;-70
2022/04/09 07:08:36;;;;;;;2.17;1.43;;;10.10;99.90;9.20;101024.00;;;;5039548;28;20178;-70
2022/04/09 07:11:08;;;;;;;4.43;1.43;;;9.80;99.90;8.60;101052.00;;;;5039599;28;20185;-70
2022/04/09 07:13:45;;;;;;;2.50;1.30;;;9.70;99.90;9.60;101041.00;;;;5022364;28;20200;-69
2022/04/09 07:16:13;;;;;;;2.00;0.70;;;9.90;99.90;9.80;101061.00;;;;5039027;28;20178;-68
2022/04/09 07:18:42;;;;;;;2.43;1.20;;;10.10;99.90;9.30;101054.00;;;;5022451;28;20510;-70
2022/04/09 07:21:13;;;;;;;0.30;0.30;;;9.90;99.90;10.30;101049.00;;;;5022303;28;20184;-69
2022/04/09 07:23:44;;;;;;;3.70;0.83;;;10.30;99.90;8.80;101012.00;;;;5056324;28;20185;-70
2022/04/09 07:26:16;;;;;;;5.40;1.20;;;9.80;99.90;8.90;101044.00;;;;5022221;28;20213;-70
2022/04/09 07:28:42;;;;;;;4.53;2.77;;;9.60;99.90;9.90;101048.00;;;;5021600;28;20194;-69
2022/04/09 07:31:10;;;;;;;1.20;1.10;;;10.00;99.90;9.80;101021.00;;;;5038160;28;20194;-70
2022/04/09 07:33:38;;;;;;;0.10;0.10;;;10.30;99.90;11.70;101086.00;;;;5056727;28;20554;-69
2022/04/09 07:36:09;;;;;;;6.90;1.37;;;11.30;99.90;11.50;101107.00;;;;5038259;28;20615;-70
2022/04/09 07:38:41;;;;;;;2.23;1.03;;;11.90;99.90;11.80;101118.00;;;;5037504;28;20186;-69
2022/04/09 07:41:14;;;;;;;0.53;0.27;;;12.10;99.90;13.00;101133.00;;;;5038776;28;20181;-68
2022/04/09 07:43:43;;;;;;;1.60;1.50;;;12.70;99.90;13.40;101158.00;;;;5054979;28;20188;-69
2022/04/09 07:46:14;;;;;;;0.87;0.87;;;13.30;99.90;14.60;101184.00;;;;5048889;28;20191;-69
2022/04/09 07:48:45;;;;;;;0.10;0.10;;;14.00;99.90;15.00;101208.00;;;;5019090;28;20222;-69
2022/04/09 07:51:16;;;;;;;1.13;0.83;;;14.50;99.90;14.80;101220.00;;;;5038633;28;20180;-69
2022/04/09 07:53:42;;;;;;;0.77;0.57;;;14.60;99.90;14.60;101233.00;;;;5037982;28;20264;-68
2022/04/09 07:56:10;;;;;;;0.93;0.57;;;14.50;99.90;14.10;101203.00;;;;5021372;28;20616;-70
2022/04/09 07:58:48;;;;;;;0.40;0.40;;;14.50;99.90;14.50;101252.00;;;;5037816;28;20186;-70
2022/04/09 08:01:19;;;;;;;0.50;0.50;;;14.40;99.90;14.10;101240.00;;;;5038158;28;20550;-69
2022/04/09 08:03:50;;;;;;;0.30;0.30;;;14.20;99.90;13.10;101221.00;;;;5020695;28;20185;-70
2022/04/09 08:06:21;;;;;;;2.60;1.27;;;13.60;99.90;12.70;101249.00;;;;5020936;28;20186;-69
2022/04/09 08:08:53;;;;;;;2.80;2.63;;;13.00;99.90;13.40;101251.00;;;;5020912;28;20227;-70
2022/04/09 08:11:24;;;;;;;0.20;0.20;;;13.20;99.90;14.30;101256.00;;;;5021343;28;20636;-70
2022/04/09 08:13:55;;;;;;;0.50;0.50;;;13.90;99.90;15.20;101223.00;;;;5025545;28;20203;-71
2022/04/09 08:16:31;;;;;;;0.57;0.57;;;14.60;99.90;14.20;101273.00;;;;5021119;28;20183;-69
2022/04/09 08:19:07;;;;;;;0.30;0.30;;;14.30;99.90;14.90;101289.00;;;;5037809;28;20563;-70
2022/04/09 08:21:38;;;;;;;0.30;0.30;;;14.50;99.90;14.20;101283.00;;;;5037427;28;20248;-71
2022/04/09 08:24:12;;;;;;;0.30;0.30;;;14.10;99.90;14.10;101301.00;;;;5055093;28;20187;-69
2022/04/09 08:26:43;;;;;;;1.17;0.57;;;14.10;99.90;12.50;101287.00;;;;5037777;28;20555;-69
2022/04/09 08:29:20;;;;;;;0.70;0.70;;;12.90;99.90;11.40;101225.00;;;;5037371;28;20229;-68
2022/04/09 08:31:49;;;;;;;0.53;0.40;;;12.10;99.90;12.50;101255.00;;;;5038087;28;20274;-69
2022/04/09 08:34:26;;;;;;;0.10;0.10;;;12.40;99.90;13.50;101282.00;;;;5018430;28;20220;-69
2022/04/09 08:37:00;;;;;;;0.47;0.47;;;13.10;99.90;14.40;101264.00;;;;5021526;28;20189;-70
2022/04/09 08:39:35;;;;;;;4.23;1.03;;;13.90;99.90;12.90;101307.00;;;;5019014;28;20294;-70
2022/04/09 08:42:12;;;;;;;0.37;0.30;;;13.60;99.90;12.40;101293.00;;;;5036154;28;20196;-70
2022/04/09 08:44:43;;;;;;;0.10;0.10;;;12.70;99.90;12.20;101259.00;;;;5036345;28;20181;-69
2022/04/09 08:47:15;;;;;;;0.30;0.30;;;12.50;99.90;14.00;101305.00;;;;5035896;28;20184;-70
2022/04/09 08:49:51;;;;;;;7.70;1.47;;;13.50;99.90;13.40;101294.00;;;;5035988;28;20209;-70
2022/04/09 08:52:22;;;;;;;0.30;0.30;;;13.40;99.90;14.10;101327.00;;;;5036589;28;20204;-70
2022/04/09 08:54:51;;;;;;;0.17;0.17;;;13.80;99.90;14.80;101343.00;;;;5036301;28;20183;-70
2022/04/09 08:57:22;;;;;;;0.10;0.10;;;14.40;99.90;15.50;101364.00;;;;5035374;28;20182;-70
2022/04/09 08:59:55;;;;;;;0.10;0.10;;;14.90;99.90;15.80;101234.00;;;;5020082;28;20190;-70
2022/04/09 09:02:28;;;;;;;2.73;0.70;;;15.30;99.90;14.70;101243.00;;;;5019566;28;20338;-70
2022/04/09 09:05:00;;;;;;;0.20;0.20;;;15.00;99.90;15.20;101268.00;;;;5019717;28;20190;-70
2022/04/09 09:07:43;;;;;;;0.30;0.30;;;15.00;99.90;13.30;101289.00;;;;5017822;28;20190;-70
2022/04/09 09:10:18;;;;;;;0.27;0.27;;;14.20;99.90;13.80;101269.00;;;;5035883;28;20177;-70
2022/04/09 09:13:04;;;;;;;1.40;0.47;;;13.80;99.90;14.70;101279.00;;;;5035622;28;20644;-70
2022/04/09 09:15:53;;;;;;;0.50;0.50;;;14.30;99.90;14.30;101288.00;;;;5035303;28;20188;-70
2022/04/09 09:18:32;;;;;;;3.73;0.87;;;14.10;99.90;12.90;101281.00;;;;5019078;28;20185;-70
2022/04/09 09:21:03;;;;;;;0.10;0.10;;;13.50;99.90;12.30;101255.00;;;;5036673;28;20171;-70
2022/04/09 09:23:38;;;;;;;1.27;1.10;;;12.60;99.90;11.80;101302.00;;;;5035754;28;20600;-69
2022/04/09 09:26:10;;;;;;;1.07;0.67;;;12.10;99.90;11.70;101299.00;;;;5035147;28;20227;-70
2022/04/09 09:28:41;;;;;;;0.30;0.30;;;12.10;99.90;12.20;101298.00;;;;5019197;28;20174;-69
2022/04/09 09:31:15;;;;;;;0.10;0.10;;;12.20;99.90;14.00;101285.00;;;;5019539;28;20184;-70
2022/04/09 09:33:49;;;;;;;0.20;0.20;;;13.40;99.90;14.90;101295.00;;;;5036374;28;20190;-70
2022/04/09 09:36:32;;;;;;;0.10;0.10;;;14.30;99.90;14.20;101292.00;;;;5035239;28;20188;-70
2022/04/09 09:39:13;;;;;;;0.10;0.10;;;14.30;99.90;13.70;101306.00;;;;5036221;28;20697;-70
2022/04/09 09:41:55;;;;;;;1.10;0.30;;;13.70;99.90;14.20;101296.00;;;;5018644;28;20183;-69
2022/04/09 09:44:31;;;;;;;0.10;0.10;;;14.10;99.90;14.90;101255.00;;;;5019075;28;20190;-70
2022/04/09 09:47:07;;;;;;;0.10;0.10;;;14.40;99.90;15.50;101286.00;;;;5035490;28;20178;-71
2022/04/09 09:49:58;;;;;;;0.40;0.40;;;15.10;99.90;14.10;101300.00;;;;5019304;28;20706;-68
2022/04/09 09:52:30;;;;;;;0.60;0.60;;;14.60;99.90;13.80;101307.00;;;;5019580;28;20211;-68
2022/04/09 09:55:16;;;;;;;0.30;0.30;;;14.00;99.90;14.40;101309.00;;;;5052757;28;20184;-69
2022/04/09 09:57:43;;;;;;;0.10;0.10;;;14.30;99.90;14.00;101313.00;;;;5035689;28;20182;-68
2022/04/09 10:00:15;;;;;;;0.80;0.80;;;14.10;99.90;14.00;101311.00;;;;5034511;28;20226;-68
2022/04/09 10:02:43;;;;;;;0.10;0.10;;;13.90;99.90;14.20;101304.00;;;;5035336;28;20184;-67
2022/04/09 10:05:09;;;;;;;0.33;0.33;;;14.00;99.90;13.30;101323.00;;;;5035070;28;20189;-63
2022/04/09 10:07:36;;;;;;;6.13;0.80;;;13.60;99.90;12.90;101315.00;;;;5052920;28;20279;-68
2022/04/09 10:10:06;;;;;;;0.50;0.50;;;13.20;99.90;11.90;101338.00;;;;5034246;28;20182;-68
2022/04/09 10:12:40;;;;;;;0.13;0.13;;;12.50;99.90;13.00;101327.00;;;;5053312;28;20207;-67
2022/04/09 10:15:10;;;;;;;0.80;0.50;;;12.80;99.90;13.70;101313.00;;;;5018846;28;20179;-68
2022/04/09 10:17:38;;;;;;;0.20;0.20;;;13.50;99.90;14.50;101314.00;;;;5034281;28;20181;-69
2022/04/09 10:20:19;;;;;;;0.40;0.40;;;14.00;99.90;14.70;101308.00;;;;5052856;28;20616;-71
2022/04/09 10:33:27;;;;;;;0.23;0.23;;;13.50;99.90;12.20;101343.00;;;;5113076;27;1323793;-69
2022/04/09 10:36:00;;;;;;;0.43;0.33;;;12.80;99.90;13.10;101335.00;;;;5110472;27;20246;-66
2022/04/09 10:38:27;;;;;;;0.30;0.30;;;13.10;99.90;13.40;101335.00;;;;5109155;28;20168;-66
2022/04/09 10:40:55;;;;;;;0.20;0.20;;;13.10;99.90;13.20;101331.00;;;;5110236;28;20174;-72
2022/04/09 10:43:27;;;;;;;5.73;1.03;;;13.10;99.90;12.20;101326.00;;;;5109312;28;20186;-74
2022/04/09 10:46:02;;;;;;;0.10;0.10;;;12.90;99.90;12.80;101355.00;;;;5111298;28;20253;-73
2022/04/09 10:48:43;;;;;;;0.30;0.30;;;12.80;99.90;13.40;101330.00;;;;5118128;28;20188;-73
2022/04/09 10:51:13;;;;;;;0.10;0.10;;;13.10;99.90;14.40;101315.00;;;;5113209;28;20287;-73
2022/04/09 10:53:41;;;;;;;0.30;0.30;;;13.80;99.90;14.50;101273.00;;;;5130391;28;20266;-71
2022/04/09 10:56:24;;;;;;;0.20;0.20;;;14.20;99.90;13.60;101320.00;;;;5129343;28;20208;-69
2022/04/09 10:59:16;;;;;;;0.20;0.20;;;14.10;99.90;13.80;101311.00;;;;5113750;28;20179;-71
2022/04/09 11:01:51;;;;;;;2.13;0.50;;;13.60;99.90;13.70;101322.00;;;;5122799;28;20334;-71
2022/04/09 11:04:34;;;;;;;0.63;0.63;;;13.80;99.90;14.70;101299.00;;;;5111936;27;20194;-72
2022/04/09 11:07:19;;;;;;;0.23;0.23;;;14.40;99.90;15.20;101292.00;;;;5110483;28;20703;-72
2022/04/09 11:09:57;;;;;;;0.10;0.10;;;14.90;98.90;14.00;101311.00;;;;5109812;28;20183;-72
2022/04/09 11:12:29;;;;;;;0.10;0.10;;;14.30;99.30;14.50;101306.00;;;;5091802;28;20301;-72
2022/04/09 11:15:08;;;;;;;0.20;0.20;;;14.30;99.80;14.90;101260.00;;;;5109575;28;20183;-72
2022/04/09 11:17:40;;;;;;;2.40;2.33;;;14.60;98.90;14.50;101277.00;;;;5091763;28;20183;-72
2022/04/09 11:20:23;;;;;;;0.10;0.10;;;14.50;98.90;14.50;101308.00;;;;5108889;28;20175;-72
2022/04/09 11:22:55;;;;;;;0.10;0.10;;;14.40;99.20;14.90;101297.00;;;;5092319;28;20535;-72
2022/04/09 11:25:31;;;;;;;0.50;0.50;;;14.60;98.60;15.30;101307.00;;;;5108570;28;20161;-72
2022/04/09 11:28:13;;;;;;;0.20;0.20;;;15.00;98.20;15.20;101311.00;;;;5091949;28;20645;-72